createdAt,value
2024-01-06T00:02:10.647Z,4.20
2024-01-06T00:04:37.436Z,4.20
2024-01-06T00:07:04.460Z,4.30
2024-01-06T00:09:31.270Z,4.20
2024-01-06T00:11:58.190Z,4.30
2024-01-06T00:14:25.150Z,4.20
2024-01-06T00:16:51.996Z,4.30
2024-01-06T00:19:19.039Z,4.20
2024-01-06T00:21:46.382Z,4.20
2024-01-06T00:24:13.376Z,4.20
2024-01-06T00:26:40.406Z,4.20
2024-01-06T00:29:07.284Z,4.20
2024-01-06T00:31:34.345Z,4.20
2024-01-06T00:34:01.354Z,4.20
2024-01-06T00:36:28.337Z,4.20
2024-01-06T00:38:55.092Z,4.20
2024-01-06T00:41:21.842Z,4.20
2024-01-06T00:43:48.715Z,4.20
2024-01-06T00:46:15.528Z,4.10
2024-01-06T00:48:43.008Z,4.10
2024-01-06T00:51:09.892Z,4.10
2024-01-06T00:53:37.002Z,4.20
2024-01-06T00:56:04.124Z,4.10
2024-01-06T00:58:30.911Z,4.10
2024-01-06T01:00:57.842Z,4.10
2024-01-06T01:03:24.805Z,4.10
2024-01-06T01:05:51.703Z,4.10
2024-01-06T01:08:18.535Z,4.10
2024-01-06T01:10:46.534Z,4.10
2024-01-06T01:13:13.355Z,4.10
2024-01-06T01:15:40.674Z,4.10
2024-01-06T01:18:07.787Z,4.10
2024-01-06T01:20:34.657Z,4.10
2024-01-06T01:23:01.494Z,4.10
2024-01-06T01:25:28.284Z,4.10
2024-01-06T01:27:55.112Z,4.10
2024-01-06T01:30:22.087Z,4.10
2024-01-06T01:32:49.062Z,4.10
2024-01-06T01:35:16.114Z,4.10
2024-01-06T01:37:42.919Z,4.10
2024-01-06T01:40:10.216Z,4.10
2024-01-06T01:42:37.248Z,4.10
2024-01-06T01:45:06.014Z,4.10
2024-01-06T01:47:38.454Z,4.20
2024-01-06T01:50:06.310Z,4.20
2024-01-06T01:52:33.955Z,4.20
2024-01-06T01:55:00.884Z,4.20
2024-01-06T01:57:28.689Z,4.20
2024-01-06T01:59:56.650Z,4.20
2024-01-06T02:02:24.353Z,4.20
2024-01-06T02:04:51.354Z,4.20
2024-01-06T02:07:18.575Z,4.30
2024-01-06T02:09:45.513Z,4.30
2024-01-06T02:12:12.384Z,4.30
2024-01-06T02:14:39.778Z,4.20
2024-01-06T02:17:06.777Z,4.20
2024-01-06T02:19:33.700Z,4.20
2024-01-06T02:22:00.544Z,4.10
2024-01-06T02:24:27.529Z,4.10
2024-01-06T02:26:54.421Z,4.00
2024-01-06T02:29:21.711Z,4.00
2024-01-06T02:31:48.652Z,4.00
2024-01-06T02:34:15.706Z,4.00
2024-01-06T02:36:42.595Z,3.90
2024-01-06T02:39:09.482Z,3.90
2024-01-06T02:41:36.424Z,3.90
2024-01-06T02:44:05.101Z,3.90
2024-01-06T02:46:31.953Z,3.90
2024-01-06T02:48:58.942Z,3.90
2024-01-06T02:51:25.953Z,3.90
2024-01-06T02:53:52.764Z,3.90
2024-01-06T02:56:19.996Z,3.90
2024-01-06T02:58:46.790Z,3.80
2024-01-06T03:01:14.167Z,3.90
2024-01-06T03:03:41.091Z,3.80
2024-01-06T03:06:07.969Z,3.80
2024-01-06T03:08:35.778Z,3.80
2024-01-06T03:11:05.021Z,3.80
2024-01-06T03:13:31.835Z,3.80
2024-01-06T03:15:58.685Z,3.80
2024-01-06T03:18:25.700Z,3.80
2024-01-06T03:20:52.893Z,3.90
2024-01-06T03:23:19.839Z,3.90
2024-01-06T03:25:46.654Z,3.90
2024-01-06T03:28:13.476Z,4.00
2024-01-06T03:30:40.677Z,4.00
2024-01-06T03:33:08.227Z,4.00
2024-01-06T03:35:35.111Z,4.00
2024-01-06T03:38:01.884Z,3.90
2024-01-06T03:40:28.671Z,3.90
2024-01-06T03:42:55.601Z,3.90
2024-01-06T03:45:22.478Z,3.90
2024-01-06T03:47:49.334Z,3.80
2024-01-06T03:50:16.271Z,3.80
2024-01-06T03:52:43.180Z,3.80
2024-01-06T03:55:10.247Z,3.80
2024-01-06T03:57:37.481Z,3.70
2024-01-06T04:00:05.276Z,3.70
2024-01-06T04:02:34.870Z,3.60
2024-01-06T04:05:01.969Z,3.70
2024-01-06T04:07:29.012Z,3.70
2024-01-06T04:09:55.876Z,3.70
2024-01-06T04:12:22.853Z,3.70
2024-01-06T04:14:49.728Z,3.70
2024-01-06T04:17:16.550Z,3.70
2024-01-06T04:19:43.476Z,3.70
2024-01-06T04:22:10.326Z,3.70
2024-01-06T04:24:38.526Z,3.70
2024-01-06T04:27:06.102Z,3.70
2024-01-06T04:29:33.256Z,3.70
2024-01-06T04:32:00.172Z,3.70
2024-01-06T04:34:27.089Z,3.70
2024-01-06T04:36:54.163Z,3.70
2024-01-06T04:39:21.466Z,3.70
2024-01-06T04:41:48.263Z,3.60
2024-01-06T04:44:15.177Z,3.70
2024-01-06T04:46:41.949Z,3.60
2024-01-06T04:49:08.887Z,3.70
2024-01-06T04:51:35.888Z,3.60
2024-01-06T04:54:02.684Z,3.60
2024-01-06T04:56:30.406Z,3.60
2024-01-06T04:58:58.943Z,3.60
2024-01-06T05:01:25.997Z,3.60
2024-01-06T05:03:53.011Z,3.60
2024-01-06T05:06:20.057Z,3.60
2024-01-06T05:08:47.424Z,3.60
2024-01-06T05:11:14.654Z,3.60
2024-01-06T05:13:41.777Z,3.60
2024-01-06T05:16:09.992Z,3.50
2024-01-06T05:18:37.062Z,3.60
2024-01-06T05:21:04.594Z,3.50
2024-01-06T05:23:31.442Z,3.50
2024-01-06T05:25:58.296Z,3.60
2024-01-06T05:28:25.155Z,3.60
2024-01-06T05:30:52.023Z,3.60
2024-01-06T05:33:19.315Z,3.50
2024-01-06T05:35:46.225Z,3.50
2024-01-06T05:38:13.161Z,3.50
2024-01-06T05:40:40.002Z,3.50
2024-01-06T05:43:07.087Z,3.50
2024-01-06T05:45:34.492Z,3.40
2024-01-06T05:48:01.496Z,3.40
2024-01-06T05:50:28.369Z,3.40
2024-01-06T05:52:55.144Z,3.40
2024-01-06T05:55:22.750Z,3.40
2024-01-06T05:57:49.615Z,3.40
2024-01-06T06:00:18.152Z,3.40
2024-01-06T06:02:45.038Z,3.40
2024-01-06T06:05:12.182Z,3.40
2024-01-06T06:07:40.753Z,3.40
2024-01-06T06:10:12.755Z,3.40
2024-01-06T06:12:40.135Z,3.40
2024-01-06T06:15:07.852Z,3.40
2024-01-06T06:17:35.248Z,3.40
2024-01-06T06:20:02.297Z,3.50
2024-01-06T06:22:31.697Z,3.50
2024-01-06T06:25:02.109Z,3.50
2024-01-06T06:27:29.049Z,3.50
2024-01-06T06:29:57.597Z,3.50
2024-01-06T06:32:24.896Z,3.50
2024-01-06T06:34:52.184Z,3.60
2024-01-06T06:37:19.030Z,3.60
2024-01-06T06:39:46.278Z,3.60
2024-01-06T06:42:13.584Z,3.60
2024-01-06T06:44:40.410Z,3.60
2024-01-06T06:47:07.269Z,3.70
2024-01-06T06:49:34.297Z,3.70
2024-01-06T06:52:01.214Z,3.70
2024-01-06T06:54:28.061Z,3.70
2024-01-06T06:56:54.911Z,3.70
2024-01-06T06:59:21.990Z,3.70
2024-01-06T07:01:48.857Z,3.70
2024-01-06T07:04:15.998Z,3.70
2024-01-06T07:06:43.094Z,3.70
2024-01-06T07:09:09.876Z,3.80
2024-01-06T07:11:36.775Z,3.80
2024-01-06T07:14:03.637Z,3.80
2024-01-06T07:16:30.681Z,3.80
2024-01-06T07:18:57.751Z,3.80
2024-01-06T07:21:25.068Z,3.80
2024-01-06T07:23:51.921Z,3.80
2024-01-06T07:26:19.028Z,3.80
2024-01-06T07:28:46.016Z,3.80
2024-01-06T07:31:13.278Z,3.80
2024-01-06T07:33:41.100Z,3.80
2024-01-06T07:36:08.298Z,3.80
2024-01-06T07:38:35.115Z,3.80
2024-01-06T07:41:02.042Z,3.80
2024-01-06T07:43:28.899Z,3.80
2024-01-06T07:45:55.823Z,3.80
2024-01-06T07:48:23.234Z,3.80
2024-01-06T07:50:50.933Z,3.80
2024-01-06T07:53:18.073Z,3.80
2024-01-06T07:55:44.942Z,3.80
2024-01-06T07:58:13.023Z,3.80
2024-01-06T08:00:39.947Z,3.90
2024-01-06T08:03:07.509Z,3.90
2024-01-06T08:05:34.657Z,3.90
2024-01-06T08:08:01.636Z,3.90
2024-01-06T08:10:28.398Z,3.90
2024-01-06T08:12:55.948Z,3.90
2024-01-06T08:15:22.852Z,3.90
2024-01-06T08:17:50.302Z,3.90
2024-01-06T08:20:17.129Z,3.90
2024-01-06T08:22:43.975Z,3.90
2024-01-06T08:25:11.933Z,3.90
2024-01-06T08:27:38.768Z,3.90
2024-01-06T08:30:07.844Z,3.90
2024-01-06T08:32:34.972Z,3.90
2024-01-06T08:35:02.087Z,4.00
2024-01-06T08:37:29.085Z,3.90
2024-01-06T08:39:55.988Z,3.90
2024-01-06T08:42:23.202Z,3.90
2024-01-06T08:44:50.214Z,3.80
2024-01-06T08:47:17.037Z,3.80
2024-01-06T08:49:44.077Z,3.80
2024-01-06T08:52:10.921Z,3.70
2024-01-06T08:54:37.741Z,3.70
2024-01-06T08:57:04.984Z,3.60
2024-01-06T08:59:31.805Z,3.60
2024-01-06T09:01:58.626Z,3.60
2024-01-06T09:04:25.576Z,3.60
2024-01-06T09:06:52.638Z,3.60
2024-01-06T09:09:19.636Z,3.60
2024-01-06T09:11:47.521Z,3.70
2024-01-06T09:14:14.349Z,3.70
2024-01-06T09:16:41.329Z,3.70
2024-01-06T09:19:08.909Z,3.60
2024-01-06T09:21:36.950Z,3.60
2024-01-06T09:24:07.388Z,3.60
2024-01-06T09:26:35.126Z,3.60
2024-01-06T09:29:03.802Z,3.60
2024-01-06T09:31:31.318Z,3.70
2024-01-06T09:34:03.552Z,3.60
2024-01-06T09:36:32.811Z,3.60
2024-01-06T09:38:59.944Z,3.60
2024-01-06T09:41:26.897Z,3.60
2024-01-06T09:43:53.753Z,3.60
2024-01-06T09:46:32.692Z,3.60
2024-01-06T09:49:01.241Z,3.70
2024-01-06T09:51:28.468Z,3.70
2024-01-06T09:54:01.339Z,3.70
2024-01-06T09:56:30.653Z,3.70
2024-01-06T09:58:58.278Z,3.70
2024-01-06T10:01:25.464Z,3.70
2024-01-06T10:03:52.678Z,3.80
2024-01-06T10:06:21.506Z,3.80
2024-01-06T10:08:53.540Z,3.80
2024-01-06T10:11:24.061Z,3.70
2024-01-06T10:13:52.310Z,3.70
2024-01-06T10:16:20.268Z,3.70
2024-01-06T10:18:51.462Z,3.60
2024-01-06T10:21:26.206Z,3.60
2024-01-06T10:23:55.550Z,3.60
2024-01-06T10:26:22.823Z,3.50
2024-01-06T10:28:51.218Z,3.50
2024-01-06T10:31:19.157Z,3.50
2024-01-06T10:33:46.621Z,3.50
2024-01-06T10:36:13.778Z,3.50
2024-01-06T10:38:41.635Z,3.50
2024-01-06T10:41:09.062Z,3.50
2024-01-06T10:43:38.525Z,3.50
2024-01-06T10:46:06.250Z,3.50
2024-01-06T10:48:35.354Z,3.50
2024-01-06T10:51:03.784Z,3.40
2024-01-06T10:53:31.733Z,3.40
2024-01-06T10:55:59.367Z,3.40
2024-01-06T10:58:26.863Z,3.40
2024-01-06T11:00:53.999Z,3.40
2024-01-06T11:03:22.099Z,3.40
2024-01-06T11:05:49.670Z,3.40
2024-01-06T11:08:19.096Z,3.40
2024-01-06T11:10:46.606Z,3.40
2024-01-06T11:13:21.935Z,3.40
2024-01-06T11:15:53.248Z,3.40
2024-01-06T11:18:41.105Z,3.40
2024-01-06T11:21:26.008Z,3.40
2024-01-06T11:24:17.595Z,3.40
2024-01-06T11:26:46.281Z,3.50
2024-01-06T11:29:13.728Z,3.50
2024-01-06T11:31:40.868Z,3.50
2024-01-06T11:34:20.187Z,3.60
2024-01-06T11:36:49.572Z,3.60
2024-01-06T11:39:37.806Z,3.70
2024-01-06T11:42:06.745Z,3.80
2024-01-06T11:44:39.893Z,3.80
2024-01-06T11:47:07.765Z,3.80
2024-01-06T11:49:34.970Z,3.80
2024-01-06T11:52:02.216Z,3.80
2024-01-06T11:54:29.098Z,3.80
2024-01-06T11:56:57.131Z,3.70
2024-01-06T11:59:24.228Z,3.70
2024-01-06T12:01:52.291Z,3.70
2024-01-06T12:04:19.525Z,3.70
2024-01-06T12:06:46.704Z,3.70
2024-01-06T12:09:17.507Z,3.80
2024-01-06T12:11:48.070Z,3.80
2024-01-06T12:14:14.962Z,3.80
2024-01-06T12:16:41.774Z,3.80
2024-01-06T12:19:08.768Z,3.80
2024-01-06T12:21:39.128Z,3.80
2024-01-06T12:24:21.824Z,3.70
2024-01-06T12:26:50.013Z,3.70
2024-01-06T12:29:18.736Z,3.70
2024-01-06T12:31:45.905Z,3.70
2024-01-06T12:34:13.028Z,3.70
2024-01-06T12:36:42.070Z,3.60
2024-01-06T12:39:17.518Z,3.60
2024-01-06T12:41:45.047Z,3.60
2024-01-06T12:44:12.034Z,3.60
2024-01-06T12:46:38.847Z,3.60
2024-01-06T12:49:05.852Z,3.50
2024-01-06T12:51:32.829Z,3.50
2024-01-06T12:53:59.699Z,3.50
2024-01-06T12:56:26.511Z,3.50
2024-01-06T12:58:54.210Z,3.50
2024-01-06T13:01:21.214Z,3.50
2024-01-06T13:03:48.428Z,3.40
2024-01-06T13:06:17.102Z,3.40
2024-01-06T13:08:44.219Z,3.40
2024-01-06T13:11:12.035Z,3.40
2024-01-06T13:13:38.833Z,3.40
2024-01-06T13:16:07.139Z,3.40
2024-01-06T13:18:34.144Z,3.40
2024-01-06T13:21:01.047Z,3.50
2024-01-06T13:23:28.171Z,3.40
2024-01-06T13:25:55.143Z,3.50
2024-01-06T13:28:25.200Z,3.50
2024-01-06T13:30:52.347Z,3.50
2024-01-06T13:33:19.491Z,3.60
2024-01-06T13:35:46.744Z,3.50
2024-01-06T13:38:13.677Z,3.50
2024-01-06T13:40:40.492Z,3.40
2024-01-06T13:43:10.268Z,3.40
2024-01-06T13:45:37.436Z,3.40
2024-01-06T13:48:09.222Z,3.40
2024-01-06T13:50:37.070Z,3.30
2024-01-06T13:53:04.429Z,3.30
2024-01-06T13:55:31.193Z,3.30
2024-01-06T13:57:58.037Z,3.30
2024-01-06T14:00:25.541Z,3.30
2024-01-06T14:02:52.979Z,3.30
2024-01-06T14:05:20.674Z,3.30
2024-01-06T14:07:50.415Z,3.30
2024-01-06T14:10:18.173Z,3.30
2024-01-06T14:12:45.184Z,3.30
2024-01-06T14:15:12.192Z,3.30
2024-01-06T14:17:40.701Z,3.30
2024-01-06T14:20:10.722Z,3.30
2024-01-06T14:22:38.434Z,3.30
2024-01-06T14:25:07.531Z,3.30
2024-01-06T14:27:35.265Z,3.30
2024-01-06T14:30:02.399Z,3.40
2024-01-06T14:32:30.345Z,3.30
2024-01-06T14:34:57.500Z,3.30
2024-01-06T14:37:24.728Z,3.30
2024-01-06T14:39:51.789Z,3.30
2024-01-06T14:42:20.490Z,3.30
2024-01-06T14:44:47.445Z,3.30
2024-01-06T14:47:14.325Z,3.30
2024-01-06T14:49:41.359Z,3.30
2024-01-06T14:52:08.623Z,3.30
2024-01-06T14:54:36.821Z,3.30
2024-01-06T14:57:03.835Z,3.30
2024-01-06T14:59:30.633Z,3.30
2024-01-06T15:01:57.648Z,3.30
2024-01-06T15:04:25.796Z,3.30
2024-01-06T15:06:53.695Z,3.30
2024-01-06T15:09:21.318Z,3.40
2024-01-06T15:11:48.482Z,3.30
2024-01-06T15:14:15.382Z,3.30
2024-01-06T15:16:42.342Z,3.30
2024-01-06T15:19:09.526Z,3.30
2024-01-06T15:21:38.008Z,3.20
2024-01-06T15:24:06.122Z,3.20
2024-01-06T15:26:33.076Z,3.30
2024-01-06T15:29:01.644Z,3.20
2024-01-06T15:31:31.417Z,3.20
2024-01-06T15:33:58.542Z,3.30
2024-01-06T15:36:25.453Z,3.30
2024-01-06T15:38:52.866Z,3.30
2024-01-06T15:41:19.710Z,3.30
2024-01-06T15:43:46.611Z,3.30
2024-01-06T15:46:16.744Z,3.40
2024-01-06T15:48:43.835Z,3.30
2024-01-06T15:51:11.099Z,3.40
2024-01-06T15:53:38.035Z,3.40
2024-01-06T15:56:05.120Z,3.40
2024-01-06T15:58:33.002Z,3.40
2024-01-06T16:00:59.946Z,3.40
2024-01-06T16:03:26.978Z,3.40
2024-01-06T16:05:54.006Z,3.40
2024-01-06T16:08:20.768Z,3.40
2024-01-06T16:10:47.575Z,3.30
2024-01-06T16:13:14.405Z,3.40
2024-01-06T16:15:41.312Z,3.40
2024-01-06T16:18:08.258Z,3.40
2024-01-06T16:20:35.122Z,3.30
2024-01-06T16:23:02.054Z,3.30
2024-01-06T16:25:28.855Z,3.30
2024-01-06T16:27:56.116Z,3.40
2024-01-06T16:30:23.398Z,3.30
2024-01-06T16:32:52.047Z,3.30
2024-01-06T16:35:19.025Z,3.30
2024-01-06T16:37:45.943Z,3.40
2024-01-06T16:40:13.156Z,3.30
2024-01-06T16:42:41.490Z,3.30
2024-01-06T16:45:09.011Z,3.30
2024-01-06T16:47:35.928Z,3.30
2024-01-06T16:50:02.807Z,3.40
2024-01-06T16:52:29.639Z,3.30
2024-01-06T16:54:56.904Z,3.30
2024-01-06T16:57:23.764Z,3.30
2024-01-06T16:59:50.551Z,3.40
2024-01-06T17:02:17.392Z,3.40
2024-01-06T17:04:44.384Z,3.40
2024-01-06T17:07:11.445Z,3.30
2024-01-06T17:09:38.407Z,3.30
2024-01-06T17:12:05.906Z,3.30
2024-01-06T17:14:32.991Z,3.30
2024-01-06T17:16:59.874Z,3.30
2024-01-06T17:19:27.103Z,3.30
2024-01-06T17:21:54.078Z,3.30
2024-01-06T17:24:21.013Z,3.30
2024-01-06T17:26:47.863Z,3.30
2024-01-06T17:29:14.661Z,3.30
2024-01-06T17:31:41.748Z,3.30
2024-01-06T17:34:09.675Z,3.30
2024-01-06T17:36:37.913Z,3.30
2024-01-06T17:39:05.306Z,3.30
2024-01-06T17:41:37.831Z,3.30
2024-01-06T17:44:10.705Z,3.30
2024-01-06T17:46:38.021Z,3.30
2024-01-06T17:49:07.574Z,3.30
2024-01-06T17:51:35.765Z,3.30
2024-01-06T17:54:03.224Z,3.30
2024-01-06T17:56:30.076Z,3.30
2024-01-06T17:59:02.460Z,3.30
2024-01-06T18:01:29.994Z,3.30
2024-01-06T18:03:57.139Z,3.30
2024-01-06T18:06:29.225Z,3.30
2024-01-06T18:08:56.183Z,3.30
2024-01-06T18:11:23.000Z,3.40
2024-01-06T18:13:50.057Z,3.40
2024-01-06T18:16:16.962Z,3.40
2024-01-06T18:18:43.945Z,3.40
2024-01-06T18:21:11.172Z,3.40
2024-01-06T18:23:38.066Z,3.40
2024-01-06T18:26:05.197Z,3.40
2024-01-06T18:28:33.441Z,3.40
2024-01-06T18:31:00.712Z,3.40
2024-01-06T18:33:27.921Z,3.40
2024-01-06T18:35:54.853Z,3.40
2024-01-06T18:38:21.748Z,3.40
2024-01-06T18:40:48.610Z,3.40
2024-01-06T18:43:15.464Z,3.50
2024-01-06T18:45:43.415Z,3.50
2024-01-06T18:48:11.394Z,3.50
2024-01-06T18:50:39.036Z,3.50
2024-01-06T18:53:05.931Z,3.40
2024-01-06T18:55:32.906Z,3.40
2024-01-06T18:58:01.244Z,3.50
2024-01-06T19:00:28.150Z,3.40
2024-01-06T19:02:55.115Z,3.50
2024-01-06T19:05:22.249Z,3.50
2024-01-06T19:07:49.221Z,3.50
2024-01-06T19:10:16.345Z,3.50
2024-01-06T19:12:43.269Z,3.50
2024-01-06T19:15:10.532Z,3.50
2024-01-06T19:17:38.251Z,3.50
2024-01-06T19:20:06.632Z,3.50
2024-01-06T19:22:33.392Z,3.50
2024-01-06T19:25:00.204Z,3.50
2024-01-06T19:27:27.055Z,3.50
2024-01-06T19:29:54.237Z,3.50
2024-01-06T19:32:21.144Z,3.50
2024-01-06T19:34:51.819Z,3.50
2024-01-06T19:37:18.678Z,3.50
2024-01-06T19:39:45.564Z,3.50
2024-01-06T19:42:12.382Z,3.50
2024-01-06T19:44:40.100Z,3.50
2024-01-06T19:47:09.385Z,3.50
2024-01-06T19:49:36.231Z,3.50
2024-01-06T19:52:03.246Z,3.50
2024-01-06T19:54:33.359Z,3.50
2024-01-06T19:57:00.631Z,3.50
2024-01-06T19:59:27.397Z,3.50
2024-01-06T20:01:54.236Z,3.40
2024-01-06T20:04:21.093Z,3.50
2024-01-06T20:06:48.086Z,3.50
2024-01-06T20:09:15.939Z,3.50
2024-01-06T20:11:43.386Z,3.50
2024-01-06T20:14:10.240Z,3.40
2024-01-06T20:16:37.048Z,3.40
2024-01-06T20:19:04.608Z,3.40
2024-01-06T20:21:31.891Z,3.40
2024-01-06T20:23:58.768Z,3.40
2024-01-06T20:26:27.096Z,3.40
2024-01-06T20:28:54.134Z,3.40
2024-01-06T20:31:21.242Z,3.40
2024-01-06T20:33:48.223Z,3.40
2024-01-06T20:36:16.063Z,3.50
2024-01-06T20:38:45.174Z,3.40
2024-01-06T20:41:12.090Z,3.40
2024-01-06T20:43:39.114Z,3.30
2024-01-06T20:46:06.195Z,3.30
2024-01-06T20:48:33.519Z,3.30
2024-01-06T20:51:02.959Z,3.30
2024-01-06T20:53:29.752Z,3.20
2024-01-06T20:55:56.513Z,3.30
2024-01-06T20:58:23.797Z,3.20
2024-01-06T21:00:51.023Z,3.20
2024-01-06T21:03:17.938Z,3.20
2024-01-06T21:05:45.483Z,3.20
2024-01-06T21:08:12.489Z,3.20
2024-01-06T21:10:39.330Z,3.20
2024-01-06T21:13:06.174Z,3.20
2024-01-06T21:15:33.205Z,3.20
2024-01-06T21:18:00.356Z,3.10
2024-01-06T21:20:27.271Z,3.20
2024-01-06T21:22:54.057Z,3.10
2024-01-06T21:25:22.723Z,3.10
2024-01-06T21:27:50.104Z,3.10
2024-01-06T21:30:17.059Z,3.10
2024-01-06T21:32:43.874Z,3.10
2024-01-06T21:35:10.805Z,3.20
2024-01-06T21:37:37.710Z,3.10
2024-01-06T21:40:08.207Z,3.20
2024-01-06T21:42:36.157Z,3.20
2024-01-06T21:45:04.439Z,3.20
2024-01-06T21:47:31.476Z,3.20
2024-01-06T21:49:58.449Z,3.20
2024-01-06T21:52:25.250Z,3.20
2024-01-06T21:54:52.126Z,3.20
2024-01-06T21:57:19.895Z,3.20
2024-01-06T21:59:46.784Z,3.20
2024-01-06T22:02:13.587Z,3.20
2024-01-06T22:04:42.119Z,3.20
2024-01-06T22:07:09.012Z,3.10
2024-01-06T22:09:36.483Z,3.10
2024-01-06T22:12:03.761Z,3.10
2024-01-06T22:14:30.804Z,3.10
2024-01-06T22:16:57.609Z,3.10
2024-01-06T22:19:24.531Z,3.10
2024-01-06T22:21:51.421Z,3.10
2024-01-06T22:24:18.328Z,3.10
2024-01-06T22:26:46.473Z,3.10
2024-01-06T22:29:13.709Z,3.20
2024-01-06T22:31:44.501Z,3.10
2024-01-06T22:34:13.778Z,3.10
2024-01-06T22:36:41.621Z,3.10
2024-01-06T22:39:11.444Z,3.10
2024-01-06T22:41:38.682Z,3.00
2024-01-06T22:44:07.098Z,3.00
2024-01-06T22:46:33.889Z,3.00
2024-01-06T22:49:00.800Z,3.00
2024-01-06T22:51:27.786Z,3.00
2024-01-06T22:53:54.767Z,3.00
2024-01-06T22:56:21.576Z,2.90
2024-01-06T22:58:48.407Z,2.90
2024-01-06T23:01:15.277Z,3.00
2024-01-06T23:03:42.235Z,2.90
2024-01-06T23:06:09.448Z,2.90
2024-01-06T23:08:36.531Z,2.90
2024-01-06T23:11:04.798Z,2.90
2024-01-06T23:13:32.242Z,2.80
2024-01-06T23:15:59.576Z,2.80
2024-01-06T23:18:26.825Z,2.80
2024-01-06T23:20:53.746Z,2.90
2024-01-06T23:23:20.636Z,2.90
2024-01-06T23:25:47.551Z,2.90
2024-01-06T23:28:14.337Z,2.90
2024-01-06T23:30:42.195Z,2.90
2024-01-06T23:33:09.368Z,2.80
2024-01-06T23:35:36.175Z,2.80
2024-01-06T23:38:03.078Z,2.80
2024-01-06T23:40:29.904Z,2.80
2024-01-06T23:42:56.837Z,2.80
2024-01-06T23:45:23.949Z,2.80
2024-01-06T23:47:51.451Z,2.80
2024-01-06T23:50:19.147Z,2.80
2024-01-06T23:52:45.949Z,2.80
2024-01-06T23:55:13.359Z,2.80
2024-01-06T23:57:40.595Z,2.70
